createdAt,value
2022-10-01T00:00:07.763Z,8.21
2022-10-01T00:01:07.818Z,8.28
2022-10-01T00:02:07.757Z,8.30
2022-10-01T00:03:07.841Z,8.28
2022-10-01T00:04:07.732Z,8.37
2022-10-01T00:05:07.717Z,8.37
2022-10-01T00:06:07.705Z,8.39
2022-10-01T00:07:07.685Z,8.45
2022-10-01T00:08:07.677Z,8.35
2022-10-01T00:09:07.669Z,8.33
2022-10-01T00:10:07.656Z,8.39
2022-10-01T00:11:07.677Z,8.33
2022-10-01T00:12:07.638Z,8.21
2022-10-01T00:13:07.628Z,8.26
2022-10-01T00:14:07.611Z,8.26
2022-10-01T00:15:08.932Z,8.22
2022-10-01T00:16:07.694Z,8.39
2022-10-01T00:17:07.603Z,8.32
2022-10-01T00:18:07.569Z,8.32
2022-10-01T00:19:07.607Z,8.26
2022-10-01T00:20:13.950Z,8.39
2022-10-01T00:21:09.557Z,8.30
2022-10-01T00:22:07.557Z,8.50
2022-10-01T00:23:07.515Z,8.29
2022-10-01T00:24:07.513Z,8.44
2022-10-01T00:25:07.498Z,8.40
2022-10-01T00:26:07.502Z,8.36
2022-10-01T00:27:07.479Z,8.40
2022-10-01T00:28:07.640Z,8.36
2022-10-01T00:29:07.455Z,8.44
2022-10-01T00:30:07.441Z,8.33
2022-10-01T00:31:07.481Z,8.36
2022-10-01T00:32:07.427Z,8.37
2022-10-01T00:33:07.419Z,8.39
2022-10-01T00:34:07.407Z,8.32
2022-10-01T00:35:07.400Z,8.33
2022-10-01T00:36:07.411Z,8.36
2022-10-01T00:37:07.431Z,8.33
2022-10-01T00:38:07.367Z,8.40
2022-10-01T00:39:07.351Z,8.28
2022-10-01T00:40:07.346Z,8.33
2022-10-01T00:41:07.359Z,8.35
2022-10-01T00:42:07.324Z,8.37
2022-10-01T00:43:07.319Z,8.28
2022-10-01T00:44:07.304Z,8.35
2022-10-01T00:45:07.282Z,8.35
2022-10-01T00:46:07.363Z,8.36
2022-10-01T00:47:07.278Z,8.40
2022-10-01T00:48:07.280Z,8.44
2022-10-01T00:49:07.260Z,8.37
2022-10-01T00:50:07.250Z,8.33
2022-10-01T00:51:07.249Z,8.37
2022-10-01T00:52:07.224Z,8.25
2022-10-01T00:53:07.198Z,8.39
2022-10-01T00:54:08.200Z,8.33
2022-10-01T00:55:07.190Z,8.44
2022-10-01T00:56:07.199Z,8.39
2022-10-01T00:57:07.165Z,8.35
2022-10-01T00:58:07.172Z,8.33
2022-10-01T00:59:07.152Z,8.29
2022-10-01T01:00:07.149Z,8.29
2022-10-01T01:01:07.187Z,8.42
2022-10-01T01:02:07.136Z,8.37
2022-10-01T01:03:07.112Z,8.40
2022-10-01T01:04:07.097Z,8.30
2022-10-01T01:05:07.085Z,8.22
2022-10-01T01:06:07.092Z,8.33
2022-10-01T01:07:07.061Z,8.22
2022-10-01T01:08:07.099Z,8.42
2022-10-01T01:09:07.041Z,8.28
2022-10-01T01:10:07.033Z,8.29
2022-10-01T01:11:07.027Z,8.39
2022-10-01T01:12:07.036Z,8.37
2022-10-01T01:13:07.010Z,8.37
2022-10-01T01:14:07.001Z,8.40
2022-10-01T01:15:06.986Z,8.32
2022-10-01T01:16:06.999Z,8.53
2022-10-01T01:17:06.972Z,8.40
2022-10-01T01:18:06.985Z,8.39
2022-10-01T01:19:06.946Z,8.47
2022-10-01T01:20:06.933Z,8.45
2022-10-01T01:21:06.928Z,8.47
2022-10-01T01:22:06.938Z,8.45
2022-10-01T01:23:06.899Z,8.55
2022-10-01T01:24:06.891Z,8.55
2022-10-01T01:25:06.878Z,8.53
2022-10-01T01:26:06.872Z,8.60
2022-10-01T01:27:06.888Z,8.65
2022-10-01T01:28:06.914Z,8.68
2022-10-01T01:29:06.842Z,8.71
2022-10-01T01:30:06.830Z,8.71
2022-10-01T01:31:06.859Z,8.78
2022-10-01T01:32:09.388Z,8.83
2022-10-01T01:33:06.805Z,8.83
2022-10-01T01:34:06.791Z,8.97
2022-10-01T01:35:06.777Z,9.02
2022-10-01T01:36:06.775Z,8.96
2022-10-01T01:37:06.783Z,8.96
2022-10-01T01:38:06.746Z,8.99
2022-10-01T01:39:06.736Z,8.86
2022-10-01T01:40:06.726Z,8.93
2022-10-01T01:41:06.737Z,9.04
2022-10-01T01:42:06.725Z,9.04
2022-10-01T01:43:06.700Z,9.05
2022-10-01T01:44:06.694Z,9.10
2022-10-01T01:45:06.682Z,9.06
2022-10-01T01:46:06.747Z,8.96
2022-10-01T01:47:06.675Z,9.04
2022-10-01T01:48:06.645Z,8.91
2022-10-01T01:49:06.638Z,9.05
2022-10-01T01:50:06.622Z,8.99
2022-10-01T01:51:06.620Z,8.91
2022-10-01T01:52:06.621Z,8.97
2022-10-01T01:53:06.594Z,8.91
2022-10-01T01:54:06.867Z,8.91
2022-10-01T01:55:07.874Z,8.86
2022-10-01T01:56:06.780Z,8.91
2022-10-01T01:57:06.825Z,8.86
2022-10-01T01:58:08.502Z,8.86
2022-10-01T01:59:06.828Z,8.91
2022-10-01T02:00:06.786Z,8.96
2022-10-01T02:01:07.427Z,8.87
2022-10-01T02:02:07.937Z,8.93
2022-10-01T02:03:06.857Z,8.86
2022-10-01T02:04:06.711Z,9.02
2022-10-01T02:05:06.802Z,8.93
2022-10-01T02:06:06.680Z,8.91
2022-10-01T02:07:09.108Z,8.97
2022-10-01T02:08:07.201Z,8.93
2022-10-01T02:09:06.695Z,9.02
2022-10-01T02:10:07.210Z,8.88
2022-10-01T02:11:06.626Z,8.90
2022-10-01T02:12:07.409Z,8.88
2022-10-01T02:13:08.363Z,8.90
2022-10-01T02:14:06.631Z,8.91
2022-10-01T02:15:07.435Z,8.90
2022-10-01T02:16:06.825Z,9.05
2022-10-01T02:17:07.402Z,9.01
2022-10-01T02:18:07.305Z,9.13
2022-10-01T02:19:07.378Z,8.99
2022-10-01T02:20:07.220Z,9.04
2022-10-01T02:21:06.561Z,9.04
2022-10-01T02:22:06.585Z,9.06
2022-10-01T02:23:38.192Z,9.01
2022-10-01T02:24:06.281Z,9.02
2022-10-01T02:25:06.285Z,9.05
2022-10-01T02:26:06.265Z,9.12
2022-10-01T02:27:06.286Z,9.06
2022-10-01T02:28:06.312Z,9.15
2022-10-01T02:29:06.236Z,9.13
2022-10-01T02:30:06.223Z,9.20
2022-10-01T02:31:06.276Z,9.15
2022-10-01T02:32:06.235Z,9.10
2022-10-01T02:33:06.195Z,9.09
2022-10-01T02:34:09.708Z,9.15
2022-10-01T02:35:08.172Z,9.21
2022-10-01T02:36:06.176Z,9.18
2022-10-01T02:37:06.195Z,9.24
2022-10-01T02:38:06.149Z,9.18
2022-10-01T02:39:06.142Z,9.20
2022-10-01T02:40:06.133Z,9.27
2022-10-01T02:41:06.122Z,9.30
2022-10-01T02:42:06.130Z,9.27
2022-10-01T02:43:06.095Z,9.31
2022-10-01T02:44:06.091Z,9.28
2022-10-01T02:45:06.079Z,9.27
2022-10-01T02:46:06.163Z,9.32
2022-10-01T02:47:06.085Z,9.38
2022-10-01T02:48:06.045Z,9.49
2022-10-01T02:49:06.033Z,9.43
2022-10-01T02:50:06.025Z,9.40
2022-10-01T02:51:06.018Z,9.56
2022-10-01T02:52:06.019Z,9.45
2022-10-01T02:53:06.000Z,9.49
2022-10-01T02:54:05.992Z,9.50
2022-10-01T02:55:05.979Z,9.52
2022-10-01T02:56:05.973Z,9.52
2022-10-01T02:57:05.973Z,9.50
2022-10-01T02:58:05.953Z,9.52
2022-10-01T02:59:05.941Z,9.57
2022-10-01T03:00:05.931Z,9.61
2022-10-01T03:01:05.926Z,9.58
2022-10-01T03:02:06.096Z,9.60
2022-10-01T03:03:05.894Z,9.66
2022-10-01T03:04:05.887Z,9.63
2022-10-01T03:05:05.895Z,9.63
2022-10-01T03:06:05.863Z,9.58
2022-10-01T03:07:05.877Z,9.67
2022-10-01T03:08:05.830Z,9.71
2022-10-01T03:09:05.833Z,9.70
2022-10-01T03:10:05.848Z,9.71
2022-10-01T03:11:05.828Z,9.75
2022-10-01T03:12:05.815Z,9.79
2022-10-01T03:13:05.794Z,9.88
2022-10-01T03:14:05.795Z,9.86
2022-10-01T03:15:05.778Z,9.88
2022-10-01T03:16:05.814Z,9.93
2022-10-01T03:17:05.780Z,9.93
2022-10-01T03:18:05.746Z,9.97
2022-10-01T03:19:05.736Z,10.00
2022-10-01T03:20:05.728Z,10.04
2022-10-01T03:21:05.735Z,10.06
2022-10-01T03:22:05.737Z,10.06
2022-10-01T03:23:05.702Z,10.06
2022-10-01T03:24:05.690Z,10.03
2022-10-01T03:25:05.681Z,10.10
2022-10-01T03:26:05.664Z,10.10
2022-10-01T03:27:05.653Z,10.21
2022-10-01T03:28:05.706Z,10.17
2022-10-01T03:29:05.636Z,10.14
2022-10-01T03:30:05.627Z,10.19
2022-10-01T03:31:05.754Z,10.22
2022-10-01T03:32:05.610Z,10.28
2022-10-01T03:33:05.616Z,10.30
2022-10-01T03:34:05.589Z,10.34
2022-10-01T03:35:05.606Z,10.36
2022-10-01T03:36:05.560Z,10.42
2022-10-01T03:37:05.561Z,10.42
2022-10-01T03:38:05.569Z,10.40
2022-10-01T03:39:05.545Z,10.44
2022-10-01T03:40:05.529Z,10.52
2022-10-01T03:41:05.515Z,10.46
2022-10-01T03:42:05.514Z,10.44
2022-10-01T03:43:05.519Z,10.43
2022-10-01T03:44:05.489Z,10.53
2022-10-01T03:45:05.480Z,10.62
2022-10-01T03:46:05.529Z,10.51
2022-10-01T03:47:05.467Z,10.59
2022-10-01T03:48:05.466Z,10.70
2022-10-01T03:49:05.440Z,10.58
2022-10-01T03:50:05.431Z,10.73
2022-10-01T03:51:05.415Z,10.62
2022-10-01T03:52:06.426Z,10.78
2022-10-01T03:53:05.397Z,10.74
2022-10-01T03:54:05.387Z,10.68
2022-10-01T03:55:05.391Z,10.77
2022-10-01T03:56:05.364Z,10.68
2022-10-01T03:57:05.372Z,10.70
2022-10-01T03:58:05.377Z,10.65
2022-10-01T03:59:05.349Z,10.80
2022-10-01T04:00:05.342Z,10.73
2022-10-01T04:01:05.323Z,10.74
2022-10-01T04:02:05.446Z,10.78
2022-10-01T04:03:05.399Z,10.80
2022-10-01T04:04:05.294Z,10.80
2022-10-01T04:05:05.285Z,10.76
2022-10-01T04:06:05.279Z,10.77
2022-10-01T04:07:05.266Z,10.91
2022-10-01T04:08:05.274Z,10.78
2022-10-01T04:09:05.252Z,10.83
2022-10-01T04:10:05.234Z,10.94
2022-10-01T04:11:05.234Z,10.86
2022-10-01T04:12:05.214Z,10.91
2022-10-01T04:13:05.219Z,10.86
2022-10-01T04:14:05.195Z,10.91
2022-10-01T04:15:05.185Z,10.86
2022-10-01T04:16:05.227Z,10.84
2022-10-01T04:17:05.158Z,10.83
2022-10-01T04:18:05.171Z,10.88
2022-10-01T04:19:05.140Z,10.80
2022-10-01T04:20:05.132Z,10.80
2022-10-01T04:21:05.129Z,10.81
2022-10-01T04:22:05.113Z,10.78
2022-10-01T04:23:05.115Z,10.73
2022-10-01T04:24:05.091Z,10.80
2022-10-01T04:25:05.075Z,10.70
2022-10-01T04:26:05.068Z,10.73
2022-10-01T04:27:05.053Z,10.77
2022-10-01T04:28:06.162Z,10.74
2022-10-01T04:29:05.033Z,10.56
2022-10-01T04:30:05.022Z,10.55
2022-10-01T04:31:05.015Z,10.46
2022-10-01T04:32:05.067Z,10.51
2022-10-01T04:33:04.993Z,10.53
2022-10-01T04:34:04.983Z,10.53
2022-10-01T04:35:05.032Z,10.37
2022-10-01T04:36:04.969Z,10.51
2022-10-01T04:37:04.977Z,10.44
2022-10-01T04:38:04.957Z,10.34
2022-10-01T04:39:04.939Z,10.37
2022-10-01T04:40:04.927Z,10.42
2022-10-01T04:41:04.924Z,10.40
2022-10-01T04:42:04.925Z,10.34
2022-10-01T04:43:04.898Z,10.25
2022-10-01T04:44:04.885Z,10.28
2022-10-01T04:45:04.906Z,10.26
2022-10-01T04:46:04.870Z,10.30
2022-10-01T04:47:04.935Z,10.21
2022-10-01T04:48:04.859Z,10.22
2022-10-01T04:49:04.847Z,10.19
2022-10-01T04:50:04.828Z,10.14
2022-10-01T04:51:04.825Z,10.07
2022-10-01T04:52:04.827Z,10.07
2022-10-01T04:53:04.812Z,10.15
2022-10-01T04:54:04.794Z,10.17
2022-10-01T04:55:04.778Z,10.12
2022-10-01T04:56:04.767Z,10.10
2022-10-01T04:57:04.784Z,10.14
2022-10-01T04:58:04.748Z,10.09
2022-10-01T04:59:04.740Z,10.10
2022-10-01T05:00:04.730Z,10.12
2022-10-01T05:01:04.792Z,10.09
2022-10-01T05:02:04.771Z,10.07
2022-10-01T05:03:04.701Z,10.01
2022-10-01T05:04:04.688Z,10.04
2022-10-01T05:05:04.690Z,9.96
2022-10-01T05:06:04.669Z,10.06
2022-10-01T05:07:04.676Z,10.06
2022-10-01T05:08:04.647Z,10.10
2022-10-01T05:09:04.641Z,10.03
2022-10-01T05:10:04.630Z,9.91
2022-10-01T05:11:04.624Z,9.86
2022-10-01T05:12:04.618Z,9.94
2022-10-01T05:13:04.609Z,9.96
2022-10-01T05:14:04.593Z,9.96
2022-10-01T05:15:04.587Z,10.03
2022-10-01T05:16:04.585Z,9.86
2022-10-01T05:17:04.579Z,10.01
2022-10-01T05:18:04.556Z,10.01
2022-10-01T05:19:04.541Z,9.89
2022-10-01T05:20:04.533Z,9.94
2022-10-01T05:21:04.539Z,9.89
2022-10-01T05:22:04.542Z,9.94
2022-10-01T05:23:04.502Z,9.85
2022-10-01T05:24:04.495Z,9.86
2022-10-01T05:25:04.489Z,9.86
2022-10-01T05:26:04.481Z,9.94
2022-10-01T05:27:04.477Z,9.86
2022-10-01T05:28:04.490Z,9.83
2022-10-01T05:29:04.455Z,9.86
2022-10-01T05:30:04.448Z,9.88
2022-10-01T05:31:04.521Z,9.81
2022-10-01T05:32:04.477Z,9.83
2022-10-01T05:33:04.401Z,9.85
2022-10-01T05:34:04.389Z,9.81
2022-10-01T05:35:04.380Z,9.81
2022-10-01T05:36:04.373Z,9.82
2022-10-01T05:37:04.372Z,9.85
2022-10-01T05:38:04.359Z,9.85
2022-10-01T05:39:04.334Z,9.79
2022-10-01T05:40:04.337Z,9.81
2022-10-01T05:41:04.329Z,9.85
2022-10-01T05:42:06.551Z,9.76
2022-10-01T05:43:05.305Z,9.79
2022-10-01T05:44:04.294Z,9.85
2022-10-01T05:45:04.285Z,9.76
2022-10-01T05:46:04.322Z,9.71
2022-10-01T05:47:04.276Z,9.78
2022-10-01T05:48:04.245Z,9.76
2022-10-01T05:49:04.238Z,9.67
2022-10-01T05:50:04.232Z,9.70
2022-10-01T05:51:04.227Z,9.67
2022-10-01T05:52:04.229Z,9.70
2022-10-01T05:53:04.203Z,9.61
2022-10-01T05:54:04.189Z,9.75
2022-10-01T05:55:04.179Z,9.66
2022-10-01T05:56:04.176Z,9.71
2022-10-01T05:57:04.180Z,9.73
2022-10-01T05:58:04.158Z,9.79
2022-10-01T05:59:04.141Z,9.64
2022-10-01T06:00:04.135Z,9.70
2022-10-01T06:01:04.128Z,9.82
2022-10-01T06:02:04.337Z,9.71
2022-10-01T06:03:04.151Z,9.76
2022-10-01T06:04:04.093Z,9.70
2022-10-01T06:05:04.083Z,9.64
2022-10-01T06:06:04.067Z,9.76
2022-10-01T06:07:04.095Z,9.76
2022-10-01T06:08:04.053Z,9.70
2022-10-01T06:09:04.045Z,9.67
2022-10-01T06:10:04.034Z,9.75
2022-10-01T06:11:04.029Z,9.78
2022-10-01T06:12:04.033Z,9.73
2022-10-01T06:13:04.002Z,9.70
2022-10-01T06:14:03.998Z,9.79
2022-10-01T06:15:03.987Z,9.79
2022-10-01T06:16:03.997Z,9.86
2022-10-01T06:17:03.994Z,9.73
2022-10-01T06:18:03.967Z,9.78
2022-10-01T06:19:03.957Z,9.83
2022-10-01T06:20:03.947Z,9.79
2022-10-01T06:21:03.926Z,9.76
2022-10-01T06:22:03.954Z,9.82
2022-10-01T06:23:03.940Z,9.83
2022-10-01T06:24:03.904Z,9.76
2022-10-01T06:25:04.896Z,9.81
2022-10-01T06:26:03.884Z,9.81
2022-10-01T06:27:03.886Z,9.82
2022-10-01T06:28:03.883Z,9.78
2022-10-01T06:29:03.853Z,9.85
2022-10-01T06:30:03.843Z,9.86
2022-10-01T06:31:03.834Z,9.86
2022-10-01T06:32:03.898Z,9.91
2022-10-01T06:33:03.816Z,9.83
2022-10-01T06:34:03.795Z,9.94
2022-10-01T06:35:03.795Z,9.88
2022-10-01T06:36:03.782Z,9.86
2022-10-01T06:37:03.795Z,9.79
2022-10-01T06:38:03.753Z,9.83
2022-10-01T06:39:03.765Z,9.82
2022-10-01T06:40:03.747Z,9.93
2022-10-01T06:41:03.735Z,9.85
2022-10-01T06:42:03.751Z,9.89
2022-10-01T06:43:03.726Z,9.89
2022-10-01T06:44:03.705Z,9.88
2022-10-01T06:45:03.705Z,9.89
2022-10-01T06:46:03.722Z,9.88
2022-10-01T06:47:03.697Z,9.96
2022-10-01T06:48:03.667Z,9.96
2022-10-01T06:49:03.655Z,9.89
2022-10-01T06:50:03.646Z,9.83
2022-10-01T06:51:03.642Z,9.89
2022-10-01T06:52:03.641Z,9.96
2022-10-01T06:53:03.619Z,9.91
2022-10-01T06:54:03.609Z,9.96
2022-10-01T06:55:03.601Z,9.88
2022-10-01T06:56:03.587Z,9.93
2022-10-01T06:57:03.594Z,9.85
2022-10-01T06:58:03.560Z,9.89
2022-10-01T06:59:03.559Z,9.86
2022-10-01T07:00:03.548Z,9.99
2022-10-01T07:01:03.677Z,9.97
2022-10-01T07:02:03.577Z,9.94
2022-10-01T07:03:03.520Z,9.91
2022-10-01T07:04:03.499Z,9.96
2022-10-01T07:05:03.505Z,9.94
2022-10-01T07:06:03.501Z,9.89
2022-10-01T07:07:03.509Z,10.01
2022-10-01T07:08:03.467Z,10.01
2022-10-01T07:09:03.455Z,9.93
2022-10-01T07:10:03.435Z,9.99
2022-10-01T07:11:03.449Z,9.97
2022-10-01T07:12:03.441Z,10.04
2022-10-01T07:13:03.410Z,9.93
2022-10-01T07:14:03.404Z,9.99
2022-10-01T07:15:03.408Z,10.07
2022-10-01T07:16:03.418Z,10.00
2022-10-01T07:17:03.401Z,9.99
2022-10-01T07:18:03.357Z,9.93
2022-10-01T07:19:03.357Z,10.00
2022-10-01T07:20:03.347Z,10.04
2022-10-01T07:21:03.338Z,10.01
2022-10-01T07:22:03.329Z,10.01
2022-10-01T07:23:03.413Z,10.00
2022-10-01T07:24:03.301Z,10.09
2022-10-01T07:25:03.288Z,10.01
2022-10-01T07:26:04.285Z,10.18
2022-10-01T07:27:07.239Z,10.04
2022-10-01T07:28:04.325Z,10.03
2022-10-01T07:29:03.256Z,10.09
2022-10-01T07:30:03.239Z,10.03
2022-10-01T07:31:03.228Z,10.10
2022-10-01T07:32:03.261Z,10.09
2022-10-01T07:33:03.244Z,10.19
2022-10-01T07:34:03.209Z,10.14
2022-10-01T07:35:03.204Z,10.14
2022-10-01T07:36:03.196Z,10.15
2022-10-01T07:37:03.176Z,10.19
2022-10-01T07:38:04.177Z,10.15
2022-10-01T07:39:03.156Z,10.21
2022-10-01T07:40:07.370Z,10.21
2022-10-01T07:41:04.128Z,10.24
2022-10-01T07:42:03.120Z,10.26
2022-10-01T07:43:03.129Z,10.30
2022-10-01T07:44:03.107Z,10.32
2022-10-01T07:45:03.104Z,10.37
2022-10-01T07:46:03.138Z,10.33
2022-10-01T07:47:03.083Z,10.39
2022-10-01T07:48:03.082Z,10.36
2022-10-01T07:49:03.054Z,10.30
2022-10-01T07:50:03.038Z,10.39
2022-10-01T07:51:03.048Z,10.43
2022-10-01T07:52:03.030Z,10.36
2022-10-01T07:53:03.044Z,10.44
2022-10-01T07:54:03.007Z,10.46
2022-10-01T07:55:03.003Z,10.43
2022-10-01T07:56:02.986Z,10.46
2022-10-01T07:57:02.988Z,10.40
2022-10-01T07:58:02.981Z,10.56
2022-10-01T07:59:02.965Z,10.42
2022-10-01T08:00:02.951Z,10.42
2022-10-01T08:01:02.983Z,10.47
2022-10-01T08:02:02.977Z,10.53
2022-10-01T08:03:02.947Z,10.43
2022-10-01T08:04:02.955Z,10.44
2022-10-01T08:05:02.907Z,10.47
2022-10-01T08:06:02.902Z,10.51
2022-10-01T08:07:02.898Z,10.47
2022-10-01T08:08:02.899Z,10.52
2022-10-01T08:09:02.869Z,10.47
2022-10-01T08:10:02.866Z,10.55
2022-10-01T08:11:02.842Z,10.58
2022-10-01T08:12:02.832Z,10.58
2022-10-01T08:13:02.840Z,10.70
2022-10-01T08:14:02.795Z,10.73
2022-10-01T08:15:03.804Z,10.68
2022-10-01T08:16:02.805Z,10.55
2022-10-01T08:17:02.799Z,10.65
2022-10-01T08:18:02.792Z,10.65
2022-10-01T08:19:02.759Z,10.76
2022-10-01T08:20:02.750Z,10.68
2022-10-01T08:21:02.740Z,10.81
2022-10-01T08:22:02.731Z,10.78
2022-10-01T08:23:02.742Z,10.70
2022-10-01T08:25:39.700Z,10.74
2022-10-01T08:26:39.692Z,10.78
2022-10-01T08:27:39.694Z,10.73
2022-10-01T08:28:39.690Z,10.71
2022-10-01T08:29:39.651Z,10.74
2022-10-01T08:30:39.654Z,10.68
2022-10-01T08:31:39.667Z,10.76
2022-10-01T08:32:39.653Z,10.77
2022-10-01T08:33:39.624Z,10.70
2022-10-01T08:34:39.614Z,10.74
2022-10-01T08:35:39.595Z,10.73
2022-10-01T08:36:39.598Z,10.68
2022-10-01T08:37:39.598Z,10.73
2022-10-01T08:38:39.576Z,10.80
2022-10-01T08:39:39.563Z,10.74
2022-10-01T08:40:39.557Z,10.70
2022-10-01T08:41:39.978Z,10.71
2022-10-01T08:42:39.550Z,10.71
2022-10-01T08:43:39.513Z,10.66
2022-10-01T08:44:39.510Z,10.71
2022-10-01T08:45:39.528Z,10.76
2022-10-01T08:46:39.488Z,10.76
2022-10-01T08:47:39.495Z,10.73
2022-10-01T08:48:39.472Z,10.76
2022-10-01T08:49:39.455Z,10.63
2022-10-01T08:50:39.454Z,10.74
2022-10-01T08:51:39.449Z,10.74
2022-10-01T08:52:40.583Z,10.74
2022-10-01T08:53:40.551Z,10.73
2022-10-01T08:54:40.540Z,10.77
2022-10-01T08:55:40.524Z,10.77
2022-10-01T08:56:40.507Z,10.74
2022-10-01T08:57:40.525Z,10.66
2022-10-01T08:58:40.496Z,10.68
2022-10-01T08:59:40.483Z,10.80
2022-10-01T09:00:40.479Z,10.76
2022-10-01T09:01:40.529Z,10.80
2022-10-01T09:02:40.472Z,10.76
2022-10-01T09:03:40.454Z,10.81
2022-10-01T09:04:41.499Z,10.78
2022-10-01T09:05:40.419Z,10.88
2022-10-01T09:06:40.472Z,10.80
2022-10-01T09:07:40.433Z,10.77
2022-10-01T09:08:40.389Z,10.80
2022-10-01T09:09:40.386Z,10.73
2022-10-01T09:10:40.376Z,10.88
2022-10-01T09:11:40.367Z,10.84
2022-10-01T09:12:40.363Z,10.86
2022-10-01T09:13:40.345Z,10.84
2022-10-01T09:14:40.333Z,10.84
2022-10-01T09:15:40.362Z,10.78
2022-10-01T09:16:40.354Z,10.84
2022-10-01T09:17:40.323Z,10.78
2022-10-01T09:18:40.310Z,10.91
2022-10-01T09:19:40.934Z,10.84
2022-10-01T09:20:41.261Z,10.84
2022-10-01T09:21:40.262Z,10.89
2022-10-01T09:22:40.268Z,10.89
2022-10-01T09:23:40.245Z,10.96
2022-10-01T09:24:40.226Z,10.99
2022-10-01T09:25:40.226Z,11.09
2022-10-01T09:26:40.211Z,11.01
2022-10-01T09:27:40.218Z,10.99
2022-10-01T09:28:40.193Z,11.11
2022-10-01T09:29:40.191Z,11.10
2022-10-01T09:30:40.169Z,11.11
2022-10-01T09:31:40.208Z,11.20
2022-10-01T09:32:40.159Z,11.13
2022-10-01T09:33:40.149Z,11.17
2022-10-01T09:34:40.131Z,11.19
2022-10-01T09:35:40.121Z,11.20
2022-10-01T09:36:40.107Z,11.14
2022-10-01T09:37:40.126Z,11.21
2022-10-01T09:38:40.085Z,11.21
2022-10-01T09:39:40.081Z,11.24
2022-10-01T09:40:40.072Z,11.21
2022-10-01T09:41:40.064Z,11.17
2022-10-01T09:42:40.072Z,11.11
2022-10-01T09:43:40.042Z,11.21
2022-10-01T09:44:40.033Z,11.24
2022-10-01T09:45:40.073Z,11.13
2022-10-01T09:46:40.013Z,11.25
2022-10-01T09:47:40.018Z,11.25
2022-10-01T09:48:39.995Z,11.16
2022-10-01T09:49:39.986Z,11.27
2022-10-01T09:50:39.992Z,11.31
2022-10-01T09:51:40.888Z,11.35
2022-10-01T09:52:40.977Z,11.35
2022-10-01T09:53:39.947Z,11.20
2022-10-01T09:54:39.930Z,11.34
2022-10-01T09:55:39.925Z,11.35
2022-10-01T09:56:39.907Z,11.32
2022-10-01T09:57:39.913Z,11.36
2022-10-01T09:58:39.895Z,11.44
2022-10-01T09:59:39.882Z,11.38
2022-10-01T10:00:39.871Z,11.43
2022-10-01T10:01:39.888Z,11.38
2022-10-01T10:02:43.386Z,11.47
2022-10-01T10:03:40.875Z,11.53
2022-10-01T10:04:39.832Z,11.53
2022-10-01T10:05:39.825Z,11.61
2022-10-01T10:06:39.805Z,11.50
2022-10-01T10:07:39.829Z,11.56
2022-10-01T10:08:39.807Z,11.54
2022-10-01T10:09:39.778Z,11.59
2022-10-01T10:10:39.766Z,11.56
2022-10-01T10:11:39.755Z,11.62
2022-10-01T10:12:39.773Z,11.57
2022-10-01T10:13:39.742Z,11.57
2022-10-01T10:14:39.737Z,11.62
2022-10-01T10:15:39.778Z,11.65
2022-10-01T10:16:39.705Z,11.71
2022-10-01T10:17:39.720Z,11.59
2022-10-01T10:18:39.694Z,11.68
2022-10-01T10:19:39.686Z,11.68
2022-10-01T10:20:39.672Z,11.67
2022-10-01T10:21:39.659Z,11.61
2022-10-01T10:22:39.678Z,11.75
2022-10-01T10:23:39.637Z,11.83
2022-10-01T10:24:39.616Z,11.85
2022-10-01T10:25:39.622Z,12.04
2022-10-01T10:26:39.917Z,11.82
2022-10-01T10:27:39.616Z,11.93
2022-10-01T10:28:43.324Z,12.06
2022-10-01T10:29:40.590Z,12.08
2022-10-01T10:30:39.569Z,12.20
2022-10-01T10:31:39.588Z,12.12
2022-10-01T10:32:39.562Z,12.13
2022-10-01T10:33:39.549Z,11.97
2022-10-01T10:34:39.533Z,12.12
2022-10-01T10:35:39.518Z,12.19
2022-10-01T10:36:39.517Z,12.20
2022-10-01T10:37:39.521Z,12.27
2022-10-01T10:38:39.514Z,12.26
2022-10-01T10:39:39.506Z,12.15
2022-10-01T10:40:39.467Z,12.24
2022-10-01T10:41:39.465Z,12.21
2022-10-01T10:42:39.475Z,12.29
2022-10-01T10:43:39.446Z,12.23
2022-10-01T10:44:39.421Z,12.27
2022-10-01T10:45:39.409Z,12.33
2022-10-01T10:46:45.230Z,12.30
2022-10-01T10:47:41.408Z,12.19
2022-10-01T10:48:39.381Z,12.26
2022-10-01T10:49:39.369Z,12.27
2022-10-01T10:50:39.362Z,12.19
2022-10-01T10:51:39.364Z,12.16
2022-10-01T10:52:41.659Z,12.27
2022-10-01T10:53:40.338Z,12.39
2022-10-01T10:54:39.333Z,12.52
2022-10-01T10:55:39.318Z,12.54
2022-10-01T10:56:39.303Z,12.59
2022-10-01T10:57:39.317Z,12.62
2022-10-01T10:58:39.295Z,12.60
2022-10-01T10:59:39.278Z,12.49
2022-10-01T11:00:39.272Z,12.48
2022-10-01T11:01:39.359Z,12.46
2022-10-01T11:02:39.277Z,12.48
2022-10-01T11:03:39.236Z,12.52
2022-10-01T11:04:39.224Z,12.48
2022-10-01T11:05:39.232Z,12.56
2022-10-01T11:06:39.206Z,12.48
2022-10-01T11:07:39.225Z,12.37
2022-10-01T11:08:39.193Z,12.45
2022-10-01T11:09:39.181Z,12.49
2022-10-01T11:10:39.179Z,12.46
2022-10-01T11:11:39.162Z,12.45
2022-10-01T11:12:39.174Z,12.52
2022-10-01T11:13:39.143Z,12.63
2022-10-01T11:14:39.129Z,12.71
2022-10-01T11:15:39.178Z,12.66
2022-10-01T11:16:39.102Z,12.67
2022-10-01T11:17:40.122Z,12.71
2022-10-01T11:18:39.091Z,12.74
2022-10-01T11:19:39.088Z,12.82
2022-10-01T11:20:39.074Z,12.75
2022-10-01T11:21:39.062Z,12.75
2022-10-01T11:22:39.073Z,12.82
2022-10-01T11:23:39.046Z,12.85
2022-10-01T11:24:39.015Z,12.84
2022-10-01T11:25:39.026Z,12.85
2022-10-01T11:26:39.007Z,12.92
2022-10-01T11:27:39.013Z,12.89
2022-10-01T11:28:38.986Z,12.88
2022-10-01T11:29:38.976Z,12.87
2022-10-01T11:30:38.966Z,13.09
2022-10-01T11:31:38.965Z,13.22
2022-10-01T11:32:39.062Z,13.14
2022-10-01T11:33:38.943Z,13.14
2022-10-01T11:34:38.933Z,13.20
2022-10-01T11:35:38.910Z,13.29
2022-10-01T11:36:38.911Z,13.24
2022-10-01T11:37:38.912Z,13.32
2022-10-01T11:38:38.874Z,13.49
2022-10-01T11:39:39.869Z,13.44
2022-10-01T11:40:38.862Z,13.55
2022-10-01T11:41:38.866Z,13.63
2022-10-01T11:42:38.862Z,13.65
2022-10-01T11:43:38.828Z,13.79
2022-10-01T11:44:38.837Z,13.67
2022-10-01T11:45:38.824Z,13.63
2022-10-01T11:46:39.341Z,13.67
2022-10-01T11:47:38.802Z,13.81
2022-10-01T11:48:38.788Z,13.69
2022-10-01T11:49:38.777Z,13.63
2022-10-01T11:50:39.532Z,13.56
2022-10-01T11:51:39.775Z,13.63
2022-10-01T11:52:38.775Z,13.58
2022-10-01T11:53:38.737Z,13.70
2022-10-01T11:54:38.730Z,13.67
2022-10-01T11:55:38.717Z,13.81
2022-10-01T11:56:38.714Z,13.70
2022-10-01T11:57:38.714Z,13.54
2022-10-01T11:58:38.683Z,13.58
2022-10-01T11:59:38.680Z,13.62
2022-10-01T12:00:38.670Z,13.69
2022-10-01T12:01:38.699Z,13.58
2022-10-01T12:02:38.682Z,13.58
2022-10-01T12:03:38.637Z,13.61
2022-10-01T12:04:38.633Z,13.69
2022-10-01T12:05:38.657Z,13.74
2022-10-01T12:06:38.779Z,13.84
2022-10-01T12:07:38.633Z,13.77
2022-10-01T12:08:38.609Z,13.74
2022-10-01T12:09:38.582Z,13.70
2022-10-01T12:10:38.583Z,13.80
2022-10-01T12:11:38.558Z,13.77
2022-10-01T12:12:38.576Z,13.76
2022-10-01T12:13:38.550Z,13.71
2022-10-01T12:14:38.543Z,13.87
2022-10-01T12:15:38.535Z,13.76
2022-10-01T12:16:39.086Z,13.73
2022-10-01T12:17:38.535Z,13.62
2022-10-01T12:18:38.497Z,13.63
2022-10-01T12:19:38.484Z,13.71
2022-10-01T12:20:38.483Z,13.87
2022-10-01T12:21:38.480Z,13.80
2022-10-01T12:22:38.477Z,13.94
2022-10-01T12:23:38.456Z,13.80
2022-10-01T12:24:38.441Z,13.81
2022-10-01T12:25:38.432Z,13.91
2022-10-01T12:26:38.487Z,13.81
2022-10-01T12:27:38.414Z,13.91
2022-10-01T12:28:38.419Z,13.87
2022-10-01T12:29:38.397Z,13.80
2022-10-01T12:30:38.380Z,13.83
2022-10-01T12:31:38.527Z,13.89
2022-10-01T12:32:38.363Z,13.89
2022-10-01T12:33:38.370Z,13.92
2022-10-01T12:34:38.337Z,13.89
2022-10-01T12:35:38.336Z,14.12
2022-10-01T12:36:38.322Z,14.17
2022-10-01T12:37:38.310Z,14.20
2022-10-01T12:38:38.325Z,14.31
2022-10-01T12:39:38.296Z,14.16
2022-10-01T12:40:38.279Z,14.21
2022-10-01T12:41:38.280Z,14.31
2022-10-01T12:42:38.263Z,14.39
2022-10-01T12:43:38.278Z,14.42
2022-10-01T12:44:38.251Z,14.46
2022-10-01T12:45:38.233Z,14.37
2022-10-01T12:46:38.646Z,14.42
2022-10-01T12:47:38.231Z,14.39
2022-10-01T12:48:38.224Z,14.52
2022-10-01T12:49:38.196Z,14.65
2022-10-01T12:50:38.178Z,14.56
2022-10-01T12:51:38.173Z,14.65
2022-10-01T12:52:38.164Z,14.68
2022-10-01T12:53:38.164Z,14.74
2022-10-01T12:54:38.130Z,14.81
2022-10-01T12:55:38.133Z,15.12
2022-10-01T12:56:38.365Z,15.20
2022-10-01T12:57:38.121Z,15.28
2022-10-01T12:58:38.115Z,15.33
2022-10-01T12:59:38.100Z,15.54
2022-10-01T13:00:38.132Z,15.54
2022-10-01T13:01:38.136Z,15.61
2022-10-01T13:02:39.067Z,15.48
2022-10-01T13:03:38.064Z,15.43
2022-10-01T13:04:38.036Z,15.56